sensor_id;sensor_type;location;lat;lon;timestamp;pressure;altitude;pressure_sealevel;temperature;humidity
66547;BME280;53400;50.364;14.874;2022-07-29T00:00:47;98792.03;;;19.09;46.71
66547;BME280;53400;50.364;14.874;2022-07-29T00:03:13;98785.59;;;19.52;45.24
66547;BME280;53400;50.364;14.874;2022-07-29T00:05:40;98792.44;;;19.49;44.31
66547;BME280;53400;50.364;14.874;2022-07-29T00:08:08;98787.13;;;19.25;44.75
66547;BME280;53400;50.364;14.874;2022-07-29T00:10:34;98781.13;;;19.28;45.64
66547;BME280;53400;50.364;14.874;2022-07-29T00:13:01;98787.88;;;19.44;45.43
66547;BME280;53400;50.364;14.874;2022-07-29T00:15:27;98781.84;;;19.34;45.58
66547;BME280;53400;50.364;14.874;2022-07-29T00:17:53;98777.59;;;19.28;45.86
66547;BME280;53400;50.364;14.874;2022-07-29T00:20:19;98772.56;;;19.35;44.92
66547;BME280;53400;50.364;14.874;2022-07-29T00:22:45;98775.28;;;19.21;45.47
66547;BME280;53400;50.364;14.874;2022-07-29T00:25:12;98776.94;;;19.17;45.67
66547;BME280;53400;50.364;14.874;2022-07-29T00:27:38;98771.53;;;19.17;45.52
66547;BME280;53400;50.364;14.874;2022-07-29T00:30:05;98768.66;;;18.94;46.24
66547;BME280;53400;50.364;14.874;2022-07-29T00:32:31;98762.34;;;18.80;46.84
66547;BME280;53400;50.364;14.874;2022-07-29T00:34:57;98761.69;;;18.69;47.17
66547;BME280;53400;50.364;14.874;2022-07-29T00:37:41;98766.44;;;18.58;48.08
66547;BME280;53400;50.364;14.874;2022-07-29T00:40:08;98754.28;;;18.56;47.90
66547;BME280;53400;50.364;14.874;2022-07-29T00:42:42;98748.72;;;18.28;47.88
66547;BME280;53400;50.364;14.874;2022-07-29T00:45:09;98744.97;;;18.24;48.46
66547;BME280;53400;50.364;14.874;2022-07-29T00:47:35;98747.75;;;18.19;48.63
66547;BME280;53400;50.364;14.874;2022-07-29T00:50:01;98742.47;;;18.47;48.32
66547;BME280;53400;50.364;14.874;2022-07-29T00:52:27;98738.09;;;18.51;47.97
66547;BME280;53400;50.364;14.874;2022-07-29T00:54:52;98738.22;;;18.41;47.80
66547;BME280;53400;50.364;14.874;2022-07-29T00:57:18;98736.84;;;18.05;49.25
66547;BME280;53400;50.364;14.874;2022-07-29T00:59:45;98732.81;;;18.22;49.04
66547;BME280;53400;50.364;14.874;2022-07-29T01:02:11;98727.75;;;18.53;48.32
66547;BME280;53400;50.364;14.874;2022-07-29T01:04:37;98727.16;;;18.56;48.21
66547;BME280;53400;50.364;14.874;2022-07-29T01:07:04;98732.59;;;18.37;48.55
66547;BME280;53400;50.364;14.874;2022-07-29T01:09:31;98726.22;;;18.09;49.83
66547;BME280;53400;50.364;14.874;2022-07-29T01:11:58;98717.38;;;17.79;50.32
66547;BME280;53400;50.364;14.874;2022-07-29T01:14:25;98719.31;;;17.50;51.42
66547;BME280;53400;50.364;14.874;2022-07-29T01:16:57;98724.44;;;17.51;51.30
66547;BME280;53400;50.364;14.874;2022-07-29T01:19:44;98730.81;;;17.36;51.92
66547;BME280;53400;50.364;14.874;2022-07-29T01:22:23;98726.00;;;17.57;51.33
66547;BME280;53400;50.364;14.874;2022-07-29T01:25:05;98724.50;;;17.46;51.47
66547;BME280;53400;50.364;14.874;2022-07-29T01:27:44;98724.97;;;17.29;51.91
66547;BME280;53400;50.364;14.874;2022-07-29T01:30:12;98720.31;;;17.35;51.67
66547;BME280;53400;50.364;14.874;2022-07-29T01:32:39;98713.41;;;17.18;51.33
66547;BME280;53400;50.364;14.874;2022-07-29T01:35:08;98720.63;;;16.99;51.92
66547;BME280;53400;50.364;14.874;2022-07-29T01:37:39;98719.78;;;17.33;51.83
66547;BME280;53400;50.364;14.874;2022-07-29T01:40:13;98711.03;;;17.41;51.71
66547;BME280;53400;50.364;14.874;2022-07-29T01:42:46;98701.69;;;17.52;51.49
66547;BME280;53400;50.364;14.874;2022-07-29T01:45:17;98707.56;;;17.35;51.47
66547;BME280;53400;50.364;14.874;2022-07-29T01:47:49;98696.50;;;17.32;51.82
66547;BME280;53400;50.364;14.874;2022-07-29T01:50:21;98696.50;;;17.32;51.37
66547;BME280;53400;50.364;14.874;2022-07-29T01:52:53;98697.94;;;17.24;52.10
66547;BME280;53400;50.364;14.874;2022-07-29T01:55:20;98691.00;;;17.13;52.25
66547;BME280;53400;50.364;14.874;2022-07-29T01:57:48;98692.16;;;17.07;52.74
66547;BME280;53400;50.364;14.874;2022-07-29T02:00:17;98690.28;;;17.07;52.28
66547;BME280;53400;50.364;14.874;2022-07-29T02:02:45;98691.25;;;17.16;52.20
66547;BME280;53400;50.364;14.874;2022-07-29T02:05:14;98692.91;;;17.12;51.78
66547;BME280;53400;50.364;14.874;2022-07-29T02:07:42;98691.31;;;17.11;52.35
66547;BME280;53400;50.364;14.874;2022-07-29T02:10:09;98692.34;;;17.15;52.38
66547;BME280;53400;50.364;14.874;2022-07-29T02:12:36;98696.13;;;17.14;52.22
66547;BME280;53400;50.364;14.874;2022-07-29T02:15:04;98702.78;;;16.98;52.46
66547;BME280;53400;50.364;14.874;2022-07-29T02:17:39;98698.56;;;16.87;52.69
66547;BME280;53400;50.364;14.874;2022-07-29T02:20:08;98687.81;;;16.77;52.26
66547;BME280;53400;50.364;14.874;2022-07-29T02:22:37;98694.88;;;16.72;52.90
66547;BME280;53400;50.364;14.874;2022-07-29T02:25:04;98687.09;;;16.66;52.92
66547;BME280;53400;50.364;14.874;2022-07-29T02:27:33;98694.91;;;16.67;51.92
66547;BME280;53400;50.364;14.874;2022-07-29T02:30:02;98691.63;;;16.70;52.71
66547;BME280;53400;50.364;14.874;2022-07-29T02:32:29;98690.72;;;16.85;52.37
66547;BME280;53400;50.364;14.874;2022-07-29T02:34:58;98691.34;;;16.72;52.45
66547;BME280;53400;50.364;14.874;2022-07-29T02:37:26;98688.78;;;16.57;53.15
66547;BME280;53400;50.364;14.874;2022-07-29T02:39:53;98689.59;;;16.57;53.41
66547;BME280;53400;50.364;14.874;2022-07-29T02:42:22;98685.88;;;16.43;53.42
66547;BME280;53400;50.364;14.874;2022-07-29T02:44:48;98689.47;;;16.33;53.33
66547;BME280;53400;50.364;14.874;2022-07-29T02:47:18;98694.88;;;16.33;53.45
66547;BME280;53400;50.364;14.874;2022-07-29T02:49:52;98695.56;;;16.49;53.43
66547;BME280;53400;50.364;14.874;2022-07-29T02:52:24;98689.09;;;16.50;53.12
66547;BME280;53400;50.364;14.874;2022-07-29T02:54:54;98693.16;;;16.52;53.51
66547;BME280;53400;50.364;14.874;2022-07-29T02:57:30;98688.88;;;16.46;53.71
66547;BME280;53400;50.364;14.874;2022-07-29T02:59:59;98688.09;;;16.41;54.01
66547;BME280;53400;50.364;14.874;2022-07-29T03:02:32;98694.84;;;16.38;54.21
66547;BME280;53400;50.364;14.874;2022-07-29T03:04:59;98692.41;;;16.42;53.84
66547;BME280;53400;50.364;14.874;2022-07-29T03:07:29;98684.31;;;16.37;53.93
66547;BME280;53400;50.364;14.874;2022-07-29T03:09:56;98691.06;;;16.39;54.18
66547;BME280;53400;50.364;14.874;2022-07-29T03:12:22;98698.38;;;16.34;54.35
66547;BME280;53400;50.364;14.874;2022-07-29T03:14:49;98689.78;;;16.32;54.58
66547;BME280;53400;50.364;14.874;2022-07-29T03:17:15;98686.28;;;16.26;54.63
66547;BME280;53400;50.364;14.874;2022-07-29T03:19:42;98694.06;;;16.38;54.39
66547;BME280;53400;50.364;14.874;2022-07-29T03:22:08;98691.50;;;16.51;54.19
66547;BME280;53400;50.364;14.874;2022-07-29T03:24:36;98687.75;;;16.52;54.17
66547;BME280;53400;50.364;14.874;2022-07-29T03:27:02;98695.91;;;16.42;54.45
66547;BME280;53400;50.364;14.874;2022-07-29T03:29:28;98688.38;;;16.34;54.63
66547;BME280;53400;50.364;14.874;2022-07-29T03:31:55;98690.56;;;16.37;54.60
66547;BME280;53400;50.364;14.874;2022-07-29T03:34:20;98684.59;;;16.35;54.91
66547;BME280;53400;50.364;14.874;2022-07-29T03:36:47;98685.41;;;16.36;54.35
66547;BME280;53400;50.364;14.874;2022-07-29T03:39:16;98687.78;;;16.42;54.58
66547;BME280;53400;50.364;14.874;2022-07-29T03:41:44;98683.47;;;16.41;54.63
66547;BME280;53400;50.364;14.874;2022-07-29T03:44:12;98689.66;;;16.47;54.65
66547;BME280;53400;50.364;14.874;2022-07-29T03:46:39;98684.16;;;16.57;54.37
66547;BME280;53400;50.364;14.874;2022-07-29T03:49:08;98686.31;;;16.60;54.20
66547;BME280;53400;50.364;14.874;2022-07-29T03:51:34;98679.63;;;16.52;54.43
66547;BME280;53400;50.364;14.874;2022-07-29T03:54:01;98686.16;;;16.46;54.57
66547;BME280;53400;50.364;14.874;2022-07-29T03:56:27;98674.88;;;16.34;54.79
66547;BME280;53400;50.364;14.874;2022-07-29T03:58:56;98682.16;;;16.39;54.59
66547;BME280;53400;50.364;14.874;2022-07-29T04:01:22;98684.88;;;16.34;54.77
66547;BME280;53400;50.364;14.874;2022-07-29T04:03:49;98679.69;;;16.42;54.40
66547;BME280;53400;50.364;14.874;2022-07-29T04:06:15;98682.69;;;16.41;54.53
66547;BME280;53400;50.364;14.874;2022-07-29T04:08:41;98679.44;;;16.39;55.17
66547;BME280;53400;50.364;14.874;2022-07-29T04:11:06;98679.75;;;16.37;54.94
66547;BME280;53400;50.364;14.874;2022-07-29T04:13:33;98683.81;;;16.35;55.12
66547;BME280;53400;50.364;14.874;2022-07-29T04:16:01;98688.47;;;16.24;55.69
66547;BME280;53400;50.364;14.874;2022-07-29T04:18:27;98680.03;;;16.31;55.98
66547;BME280;53400;50.364;14.874;2022-07-29T04:20:53;98692.50;;;16.26;55.36
66547;BME280;53400;50.364;14.874;2022-07-29T04:23:19;98677.66;;;16.24;55.67
66547;BME280;53400;50.364;14.874;2022-07-29T04:25:44;98687.66;;;16.23;55.67
66547;BME280;53400;50.364;14.874;2022-07-29T04:28:10;98684.16;;;16.23;56.09
66547;BME280;53400;50.364;14.874;2022-07-29T04:30:37;98689.09;;;16.11;56.87
66547;BME280;53400;50.364;14.874;2022-07-29T04:33:05;98687.91;;;16.27;56.12
66547;BME280;53400;50.364;14.874;2022-07-29T04:35:35;98676.22;;;16.37;55.66
66547;BME280;53400;50.364;14.874;2022-07-29T04:38:01;98673.69;;;16.50;55.40
66547;BME280;53400;50.364;14.874;2022-07-29T04:40:28;98679.81;;;16.61;54.71
66547;BME280;53400;50.364;14.874;2022-07-29T04:42:54;98687.06;;;16.71;55.26
66547;BME280;53400;50.364;14.874;2022-07-29T04:45:20;98678.91;;;16.76;55.29
66547;BME280;53400;50.364;14.874;2022-07-29T04:47:46;98687.19;;;16.50;56.04
66547;BME280;53400;50.364;14.874;2022-07-29T04:50:13;98682.59;;;16.85;55.39
66547;BME280;53400;50.364;14.874;2022-07-29T04:52:39;98686.31;;;16.94;55.32
66547;BME280;53400;50.364;14.874;2022-07-29T04:55:05;98685.03;;;16.87;55.45
66547;BME280;53400;50.364;14.874;2022-07-29T04:57:31;98680.56;;;16.67;55.87
66547;BME280;53400;50.364;14.874;2022-07-29T04:59:57;98683.91;;;16.59;56.15
66547;BME280;53400;50.364;14.874;2022-07-29T05:02:23;98680.75;;;16.46;56.39
66547;BME280;53400;50.364;14.874;2022-07-29T05:04:49;98682.56;;;16.90;55.35
66547;BME280;53400;50.364;14.874;2022-07-29T05:07:16;98679.06;;;16.90;55.71
66547;BME280;53400;50.364;14.874;2022-07-29T05:09:42;98691.22;;;16.92;55.59
66547;BME280;53400;50.364;14.874;2022-07-29T05:12:08;98692.97;;;17.31;54.29
66547;BME280;53400;50.364;14.874;2022-07-29T05:14:35;98690.34;;;17.26;54.81
66547;BME280;53400;50.364;14.874;2022-07-29T05:17:01;98692.72;;;17.57;53.87
66547;BME280;53400;50.364;14.874;2022-07-29T05:19:27;98696.59;;;17.70;53.84
66547;BME280;53400;50.364;14.874;2022-07-29T05:21:52;98699.91;;;17.66;54.41
66547;BME280;53400;50.364;14.874;2022-07-29T05:24:20;98686.56;;;17.94;53.73
66547;BME280;53400;50.364;14.874;2022-07-29T05:26:45;98695.28;;;18.10;52.47
66547;BME280;53400;50.364;14.874;2022-07-29T05:29:11;98694.78;;;18.27;51.97
66547;BME280;53400;50.364;14.874;2022-07-29T05:31:37;98697.28;;;18.42;51.19
66547;BME280;53400;50.364;14.874;2022-07-29T05:34:03;98699.84;;;18.33;51.80
66547;BME280;53400;50.364;14.874;2022-07-29T05:36:29;98695.28;;;18.29;52.01
66547;BME280;53400;50.364;14.874;2022-07-29T05:38:54;98688.25;;;18.28;51.90
66547;BME280;53400;50.364;14.874;2022-07-29T05:41:22;98686.78;;;17.98;53.24
66547;BME280;53400;50.364;14.874;2022-07-29T05:43:47;98685.03;;;18.26;53.16
66547;BME280;53400;50.364;14.874;2022-07-29T05:46:13;98689.16;;;18.23;53.42
66547;BME280;53400;50.364;14.874;2022-07-29T05:48:39;98692.47;;;18.91;51.35
66547;BME280;53400;50.364;14.874;2022-07-29T05:51:05;98695.56;;;19.58;50.20
66547;BME280;53400;50.364;14.874;2022-07-29T05:53:31;98686.16;;;19.23;49.94
66547;BME280;53400;50.364;14.874;2022-07-29T05:55:57;98689.00;;;19.18;50.03
66547;BME280;53400;50.364;14.874;2022-07-29T05:58:24;98690.66;;;19.00;51.87
66547;BME280;53400;50.364;14.874;2022-07-29T06:00:50;98699.97;;;20.09;49.49
66547;BME280;53400;50.364;14.874;2022-07-29T06:03:16;98684.22;;;20.56;47.12
66547;BME280;53400;50.364;14.874;2022-07-29T06:05:42;98681.38;;;20.61;47.49
66547;BME280;53400;50.364;14.874;2022-07-29T06:08:07;98688.97;;;20.73;47.14
66547;BME280;53400;50.364;14.874;2022-07-29T06:10:34;98688.94;;;20.96;45.98
66547;BME280;53400;50.364;14.874;2022-07-29T06:13:01;98687.00;;;21.19;44.32
66547;BME280;53400;50.364;14.874;2022-07-29T06:15:28;98699.94;;;21.44;43.70
66547;BME280;53400;50.364;14.874;2022-07-29T06:17:54;98695.78;;;21.95;42.78
66547;BME280;53400;50.364;14.874;2022-07-29T06:20:20;98699.22;;;22.44;42.39
66547;BME280;53400;50.364;14.874;2022-07-29T06:22:46;98699.06;;;22.58;41.79
66547;BME280;53400;50.364;14.874;2022-07-29T06:25:11;98696.81;;;22.17;41.96
66547;BME280;53400;50.364;14.874;2022-07-29T06:27:37;98706.81;;;23.29;41.65
66547;BME280;53400;50.364;14.874;2022-07-29T06:30:04;98705.44;;;23.53;39.71
66547;BME280;53400;50.364;14.874;2022-07-29T06:32:35;98705.78;;;22.26;42.49
66547;BME280;53400;50.364;14.874;2022-07-29T06:35:01;98701.34;;;23.29;41.98
66547;BME280;53400;50.364;14.874;2022-07-29T06:37:27;98704.81;;;22.92;42.00
66547;BME280;53400;50.364;14.874;2022-07-29T06:39:52;98702.41;;;22.64;43.39
66547;BME280;53400;50.364;14.874;2022-07-29T06:42:41;98713.34;;;21.72;46.25
66547;BME280;53400;50.364;14.874;2022-07-29T06:45:08;98709.97;;;22.24;44.60
66547;BME280;53400;50.364;14.874;2022-07-29T06:47:35;98711.56;;;22.51;43.96
66547;BME280;53400;50.364;14.874;2022-07-29T06:50:01;98706.94;;;22.25;44.51
66547;BME280;53400;50.364;14.874;2022-07-29T06:52:27;98707.53;;;21.56;45.96
66547;BME280;53400;50.364;14.874;2022-07-29T06:54:52;98715.56;;;21.61;46.47
66547;BME280;53400;50.364;14.874;2022-07-29T06:57:20;98716.56;;;21.34;46.96
66547;BME280;53400;50.364;14.874;2022-07-29T06:59:46;98716.22;;;21.04;47.58
66547;BME280;53400;50.364;14.874;2022-07-29T07:02:12;98716.22;;;21.58;46.80
66547;BME280;53400;50.364;14.874;2022-07-29T07:04:40;98711.59;;;21.67;47.07
66547;BME280;53400;50.364;14.874;2022-07-29T07:07:05;98719.78;;;21.76;47.44
66547;BME280;53400;50.364;14.874;2022-07-29T07:09:31;98718.72;;;21.94;46.66
66547;BME280;53400;50.364;14.874;2022-07-29T07:11:57;98714.63;;;22.66;45.98
66547;BME280;53400;50.364;14.874;2022-07-29T07:14:23;98721.06;;;21.79;46.20
66547;BME280;53400;50.364;14.874;2022-07-29T07:16:49;98720.06;;;22.23;45.59
66547;BME280;53400;50.364;14.874;2022-07-29T07:19:15;98714.78;;;22.35;45.05
66547;BME280;53400;50.364;14.874;2022-07-29T07:21:42;98722.16;;;21.69;47.03
66547;BME280;53400;50.364;14.874;2022-07-29T07:24:08;98719.75;;;21.67;46.70
66547;BME280;53400;50.364;14.874;2022-07-29T07:26:34;98712.53;;;22.20;45.94
66547;BME280;53400;50.364;14.874;2022-07-29T07:29:00;98719.28;;;22.23;46.42
66547;BME280;53400;50.364;14.874;2022-07-29T07:31:26;98719.75;;;22.25;45.58
66547;BME280;53400;50.364;14.874;2022-07-29T07:33:51;98725.59;;;21.92;45.88
66547;BME280;53400;50.364;14.874;2022-07-29T07:36:18;98726.19;;;21.71;46.38
66547;BME280;53400;50.364;14.874;2022-07-29T07:38:46;98729.09;;;21.84;46.79
66547;BME280;53400;50.364;14.874;2022-07-29T07:41:12;98723.09;;;22.21;46.00
66547;BME280;53400;50.364;14.874;2022-07-29T07:43:38;98733.44;;;21.76;46.90
66547;BME280;53400;50.364;14.874;2022-07-29T07:46:04;98729.50;;;21.60;46.72
66547;BME280;53400;50.364;14.874;2022-07-29T07:48:30;98732.03;;;21.96;46.20
66547;BME280;53400;50.364;14.874;2022-07-29T07:50:56;98726.31;;;21.66;46.56
66547;BME280;53400;50.364;14.874;2022-07-29T07:53:22;98716.19;;;22.07;47.02
66547;BME280;53400;50.364;14.874;2022-07-29T07:55:49;98726.72;;;21.91;46.05
66547;BME280;53400;50.364;14.874;2022-07-29T07:58:15;98712.47;;;22.03;46.23
66547;BME280;53400;50.364;14.874;2022-07-29T08:00:41;98718.72;;;22.12;46.62
66547;BME280;53400;50.364;14.874;2022-07-29T08:03:07;98714.00;;;21.77;46.44
66547;BME280;53400;50.364;14.874;2022-07-29T08:05:33;98704.28;;;22.03;46.26
66547;BME280;53400;50.364;14.874;2022-07-29T08:07:59;98715.53;;;22.01;45.12
66547;BME280;53400;50.364;14.874;2022-07-29T08:10:25;98716.19;;;22.07;45.54
66547;BME280;53400;50.364;14.874;2022-07-29T08:13:11;98714.19;;;21.81;46.38
66547;BME280;53400;50.364;14.874;2022-07-29T08:15:39;98701.56;;;22.03;45.93
66547;BME280;53400;50.364;14.874;2022-07-29T08:18:05;98708.03;;;22.24;45.26
66547;BME280;53400;50.364;14.874;2022-07-29T08:20:31;98706.13;;;22.42;44.99
66547;BME280;53400;50.364;14.874;2022-07-29T08:22:59;98704.66;;;22.27;44.45
66547;BME280;53400;50.364;14.874;2022-07-29T08:25:25;98705.31;;;22.41;44.17
66547;BME280;53400;50.364;14.874;2022-07-29T08:27:51;98706.91;;;22.60;43.96
66547;BME280;53400;50.364;14.874;2022-07-29T08:30:18;98702.09;;;22.39;44.37
66547;BME280;53400;50.364;14.874;2022-07-29T08:32:44;98707.72;;;22.52;44.22
66547;BME280;53400;50.364;14.874;2022-07-29T08:35:10;98699.84;;;22.41;44.38
66547;BME280;53400;50.364;14.874;2022-07-29T08:37:36;98704.34;;;22.63;44.32
66547;BME280;53400;50.364;14.874;2022-07-29T08:40:02;98700.00;;;22.71;43.88
66547;BME280;53400;50.364;14.874;2022-07-29T08:42:28;98702.25;;;22.69;44.83
66547;BME280;53400;50.364;14.874;2022-07-29T08:44:54;98702.22;;;22.86;44.72
66547;BME280;53400;50.364;14.874;2022-07-29T08:47:22;98711.09;;;22.66;44.00
66547;BME280;53400;50.364;14.874;2022-07-29T08:49:48;98713.16;;;22.69;44.40
66547;BME280;53400;50.364;14.874;2022-07-29T08:52:15;98718.94;;;22.76;45.48
66547;BME280;53400;50.364;14.874;2022-07-29T08:54:43;98709.81;;;22.46;45.14
66547;BME280;53400;50.364;14.874;2022-07-29T08:57:10;98712.22;;;22.65;44.77
66547;BME280;53400;50.364;14.874;2022-07-29T08:59:40;98709.00;;;22.80;44.39
66547;BME280;53400;50.364;14.874;2022-07-29T09:02:12;98718.78;;;23.07;43.25
66547;BME280;53400;50.364;14.874;2022-07-29T09:04:43;98713.47;;;22.76;44.28
66547;BME280;53400;50.364;14.874;2022-07-29T09:07:09;98714.09;;;23.55;43.75
66547;BME280;53400;50.364;14.874;2022-07-29T09:09:35;98718.81;;;23.84;42.21
66547;BME280;53400;50.364;14.874;2022-07-29T09:12:01;98710.53;;;24.01;42.42
66547;BME280;53400;50.364;14.874;2022-07-29T09:14:29;98707.31;;;23.99;41.42
66547;BME280;53400;50.364;14.874;2022-07-29T09:16:56;98709.50;;;23.76;42.35
66547;BME280;53400;50.364;14.874;2022-07-29T09:19:27;98704.19;;;22.95;43.15
66547;BME280;53400;50.364;14.874;2022-07-29T09:21:56;98707.09;;;23.36;43.30
66547;BME280;53400;50.364;14.874;2022-07-29T09:24:36;98706.34;;;23.66;42.57
66547;BME280;53400;50.364;14.874;2022-07-29T09:27:08;98709.72;;;23.24;42.92
66547;BME280;53400;50.364;14.874;2022-07-29T09:29:34;98695.63;;;23.52;43.18
66547;BME280;53400;50.364;14.874;2022-07-29T09:32:05;98704.84;;;23.39;42.75
66547;BME280;53400;50.364;14.874;2022-07-29T09:34:31;98706.50;;;23.69;42.09
66547;BME280;53400;50.364;14.874;2022-07-29T09:36:59;98696.47;;;23.44;42.47
66547;BME280;53400;50.364;14.874;2022-07-29T09:39:28;98699.28;;;23.65;41.86
66547;BME280;53400;50.364;14.874;2022-07-29T09:41:57;98696.59;;;23.56;42.30
66547;BME280;53400;50.364;14.874;2022-07-29T09:44:24;98698.88;;;23.84;41.82
66547;BME280;53400;50.364;14.874;2022-07-29T09:46:57;98696.50;;;23.35;41.95
66547;BME280;53400;50.364;14.874;2022-07-29T09:49:24;98694.59;;;23.65;42.91
66547;BME280;53400;50.364;14.874;2022-07-29T09:52:02;98709.09;;;24.16;41.61
66547;BME280;53400;50.364;14.874;2022-07-29T09:54:28;98689.66;;;23.58;41.74
66547;BME280;53400;50.364;14.874;2022-07-29T09:56:59;98697.06;;;23.88;42.35
66547;BME280;53400;50.364;14.874;2022-07-29T09:59:25;98696.56;;;24.15;41.43
66547;BME280;53400;50.364;14.874;2022-07-29T10:01:52;98699.72;;;23.75;41.92
66547;BME280;53400;50.364;14.874;2022-07-29T10:04:18;98695.19;;;23.79;42.06
66547;BME280;53400;50.364;14.874;2022-07-29T10:06:58;98697.13;;;23.79;40.86
66547;BME280;53400;50.364;14.874;2022-07-29T10:09:26;98694.19;;;24.14;40.64
66547;BME280;53400;50.364;14.874;2022-07-29T10:12:06;98684.63;;;24.41;41.78
66547;BME280;53400;50.364;14.874;2022-07-29T10:14:34;98684.28;;;24.21;40.66
66547;BME280;53400;50.364;14.874;2022-07-29T10:17:00;98690.78;;;24.38;40.52
66547;BME280;53400;50.364;14.874;2022-07-29T10:19:28;98679.78;;;24.80;39.75
66547;BME280;53400;50.364;14.874;2022-07-29T10:21:56;98694.38;;;25.05;39.91
66547;BME280;53400;50.364;14.874;2022-07-29T10:24:22;98682.63;;;25.16;38.43
66547;BME280;53400;50.364;14.874;2022-07-29T10:26:51;98683.22;;;24.89;39.25
66547;BME280;53400;50.364;14.874;2022-07-29T10:29:17;98677.25;;;25.08;39.33
66547;BME280;53400;50.364;14.874;2022-07-29T10:31:49;98676.06;;;25.42;38.07
66547;BME280;53400;50.364;14.874;2022-07-29T10:34:24;98679.00;;;25.25;38.50
66547;BME280;53400;50.364;14.874;2022-07-29T10:37:05;98678.78;;;24.84;38.99
66547;BME280;53400;50.364;14.874;2022-07-29T10:39:42;98675.84;;;24.56;40.09
66547;BME280;53400;50.364;14.874;2022-07-29T10:42:17;98673.28;;;25.17;39.02
66547;BME280;53400;50.364;14.874;2022-07-29T10:44:44;98667.72;;;24.81;39.02
66547;BME280;53400;50.364;14.874;2022-07-29T10:47:19;98671.69;;;24.83;39.98
66547;BME280;53400;50.364;14.874;2022-07-29T10:49:55;98663.66;;;25.11;38.80
66547;BME280;53400;50.364;14.874;2022-07-29T10:52:22;98662.78;;;25.32;38.60
66547;BME280;53400;50.364;14.874;2022-07-29T10:54:51;98667.03;;;25.66;38.04
66547;BME280;53400;50.364;14.874;2022-07-29T10:57:21;98666.78;;;25.71;37.64
66547;BME280;53400;50.364;14.874;2022-07-29T10:59:49;98668.22;;;25.07;38.22
66547;BME280;53400;50.364;14.874;2022-07-29T11:02:46;98655.25;;;25.29;38.51
66547;BME280;53400;50.364;14.874;2022-07-29T11:05:18;98658.91;;;25.94;37.75
66547;BME280;53400;50.364;14.874;2022-07-29T11:08:22;98656.00;;;26.56;36.42
66547;BME280;53400;50.364;14.874;2022-07-29T11:10:53;98657.56;;;25.39;36.80
66547;BME280;53400;50.364;14.874;2022-07-29T11:13:48;98656.66;;;25.59;37.24
66547;BME280;53400;50.364;14.874;2022-07-29T11:16:19;98648.16;;;25.64;36.13
66547;BME280;53400;50.364;14.874;2022-07-29T11:21:47;98652.75;;;25.85;36.68
66547;BME280;53400;50.364;14.874;2022-07-29T11:24:17;98653.75;;;25.80;35.96
66547;BME280;53400;50.364;14.874;2022-07-29T11:26:43;98645.00;;;25.87;36.65
66547;BME280;53400;50.364;14.874;2022-07-29T11:29:19;98648.75;;;25.70;36.44
66547;BME280;53400;50.364;14.874;2022-07-29T11:31:50;98653.06;;;25.96;35.73
66547;BME280;53400;50.364;14.874;2022-07-29T11:34:21;98646.06;;;26.11;36.17
66547;BME280;53400;50.364;14.874;2022-07-29T11:37:16;98647.59;;;26.36;35.27
66547;BME280;53400;50.364;14.874;2022-07-29T11:39:44;98662.44;;;25.95;36.22
66547;BME280;53400;50.364;14.874;2022-07-29T11:42:38;98654.94;;;26.20;36.09
66547;BME280;53400;50.364;14.874;2022-07-29T11:45:07;98659.44;;;26.52;35.35
66547;BME280;53400;50.364;14.874;2022-07-29T11:47:40;98663.56;;;26.74;34.78
66547;BME280;53400;50.364;14.874;2022-07-29T11:50:08;98651.84;;;26.62;35.06
66547;BME280;53400;50.364;14.874;2022-07-29T11:52:36;98652.34;;;26.11;35.03
66547;BME280;53400;50.364;14.874;2022-07-29T11:55:10;98649.66;;;26.39;33.80
66547;BME280;53400;50.364;14.874;2022-07-29T11:57:44;98653.22;;;25.87;35.29
66547;BME280;53400;50.364;14.874;2022-07-29T12:00:21;98650.53;;;26.15;34.61
66547;BME280;53400;50.364;14.874;2022-07-29T12:02:47;98648.19;;;26.29;35.40
66547;BME280;53400;50.364;14.874;2022-07-29T12:05:13;98645.50;;;26.45;34.69
66547;BME280;53400;50.364;14.874;2022-07-29T12:07:39;98642.66;;;26.42;34.07
66547;BME280;53400;50.364;14.874;2022-07-29T12:10:06;98639.69;;;26.06;34.05
66547;BME280;53400;50.364;14.874;2022-07-29T12:12:32;98628.63;;;26.31;34.00
66547;BME280;53400;50.364;14.874;2022-07-29T12:15:12;98647.53;;;26.48;33.78
66547;BME280;53400;50.364;14.874;2022-07-29T12:17:38;98642.47;;;26.22;34.21
66547;BME280;53400;50.364;14.874;2022-07-29T12:20:05;98639.97;;;26.29;33.64
66547;BME280;53400;50.364;14.874;2022-07-29T12:22:32;98652.94;;;26.04;33.17
66547;BME280;53400;50.364;14.874;2022-07-29T12:25:01;98637.78;;;25.82;33.25
66547;BME280;53400;50.364;14.874;2022-07-29T12:27:28;98640.72;;;26.42;33.53
66547;BME280;53400;50.364;14.874;2022-07-29T12:29:57;98635.34;;;26.05;33.36
66547;BME280;53400;50.364;14.874;2022-07-29T12:32:32;98636.56;;;26.20;33.37
66547;BME280;53400;50.364;14.874;2022-07-29T12:35:00;98634.66;;;26.37;33.44
66547;BME280;53400;50.364;14.874;2022-07-29T12:37:27;98633.97;;;26.40;33.46
66547;BME280;53400;50.364;14.874;2022-07-29T12:39:53;98632.09;;;27.16;32.90
66547;BME280;53400;50.364;14.874;2022-07-29T12:42:19;98638.81;;;27.03;33.10
66547;BME280;53400;50.364;14.874;2022-07-29T12:44:46;98636.88;;;27.03;33.49
66547;BME280;53400;50.364;14.874;2022-07-29T12:47:12;98629.56;;;26.95;33.27
66547;BME280;53400;50.364;14.874;2022-07-29T12:49:40;98635.06;;;27.11;33.12
66547;BME280;53400;50.364;14.874;2022-07-29T12:52:23;98637.13;;;27.14;32.91
66547;BME280;53400;50.364;14.874;2022-07-29T12:54:50;98636.44;;;27.49;31.61
66547;BME280;53400;50.364;14.874;2022-07-29T12:57:15;98632.84;;;27.80;32.19
66547;BME280;53400;50.364;14.874;2022-07-29T12:59:41;98627.63;;;27.59;32.12